Flight Track Log - Related Links

Times and Time Zones

All times are in EDT time to prevent confusion due to time zone crossing. See the UAL1177 flight status page for this flight to view local times or setup timezone preferences in your user account.

Time Position Orientation Groundspeed Altitude Reporting Facility
EDT Latitude Longitude Course Direction KTS MPH feet Rate Location/Type
Tue 03:37:25 PM 37.6333 -122.3500 50° Northeast 170 196 900  Level Northern Cal TRACON
Tue 03:38:25 PM 37.6667 -122.3000 50° Northeast 219 252 3,400 2,364 Climbing Northern Cal TRACON
Tue 03:39:04 PM 37.6922 -122.2703 43° Northeast 223 257 4,800 3,480 Climbing Oakland Center
Tue 03:40:05 PM 37.7458 -122.1839 52° Northeast 254 292 9,200 3,197 Climbing Oakland Center
Tue 03:41:06 PM 37.7733 -122.0839 71° East 298 343 11,300 2,262 Climbing Oakland Center
Tue 03:42:07 PM 37.8086 -121.9625 70° East 363 418 13,800 2,537 Climbing Oakland Center
Tue 03:43:09 PM 37.8439 -121.8344 71° East 385 443 16,500 2,341 Climbing Oakland Center
Tue 03:44:10 PM 37.8828 -121.6992 70° East 408 470 18,600 2,115 Climbing Oakland Center
Tue 03:45:11 PM 37.9231 -121.5561 70° East 429 494 20,800 2,115 Climbing Oakland Center
Tue 03:46:12 PM 37.9644 -121.4019 71° East 450 518 22,900 1,854 Climbing Oakland Center
Tue 03:47:14 PM 38.0078 -121.2475 70° East 465 535 24,600 1,659 Climbing Oakland Center
Tue 03:48:15 PM 38.0508 -121.0894 71° East 476 548 26,300 1,967 Climbing Oakland Center
Tue 03:49:16 PM 38.0908 -120.8914 76° East 488 562 28,600 1,902 Climbing Oakland Center
Tue 03:50:18 PM 38.1133 -120.7208 80° East 492 566 30,200 1,366 Climbing Oakland Center
Tue 03:51:19 PM 38.1356 -120.5489 81° East 494 568 31,400 1,230 Climbing Oakland Center
Tue 03:52:20 PM 38.1592 -120.3733 80° East 502 578 32,700 1,180 Climbing Oakland Center
Tue 03:53:21 PM 38.1836 -120.1928 80° East 514 592 33,800 1,220 Climbing Oakland Center
Tue 03:54:23 PM 38.2064 -120.0131 81° East 517 595 35,200 1,268 Climbing Oakland Center
Tue 03:55:24 PM 38.2286 -119.8353 81° East 513 590 36,400 885 Climbing Oakland Center
Tue 03:56:25 PM 38.2511 -119.6569 81° East 512 589 37,000 246 Climbing Oakland Center
Tue 03:57:26 PM 38.2733 -119.4789 81° East 512 589 36,900 -49 Descending Oakland Center
Tue 03:58:28 PM 38.2972 -119.2856 81° East 517 595 36,900  Level Oakland Center
Tue 03:59:29 PM 38.3147 -119.1033 83° East 520 598 36,900  Level Oakland Center
Tue 04:00:30 PM 38.3186 -118.9203 88° East 521 600 36,900  Level Oakland Center
Tue 04:01:31 PM 38.3261 -118.6981 87° East 525 604 36,900  Level Oakland Center
Tue 04:02:33 PM 38.3319 -118.5128 88° East 527 606 36,900  Level Oakland Center
Tue 04:03:34 PM 38.3364 -118.3272 88° East 526 605 36,900  Level Oakland Center
Tue 04:04:35 PM 38.3414 -118.1436 88° East 524 603 36,900 49 Level Oakland Center
Tue 04:05:37 PM 38.3458 -117.9550 88° East 518 596 37,000  Climbing Oakland Center
Tue 04:06:38 PM 38.3497 -117.7714 88° East 517 595 36,900 -49 Descending Oakland Center
Tue 04:07:39 PM 38.3631 -117.5886 85° East 520 598 36,900  Level Oakland Center
Tue 04:08:40 PM 38.3842 -117.4075 81° East 512 589 36,900 51 Level Oakland Center
Tue 04:09:37 PM 38.4039 -117.2253 82° East 510 587 37,000 51 Climbing Salt Lake Center
Tue 04:10:38 PM 38.4239 -117.0433 82° East 511 588 37,000 -49 Level Salt Lake Center
Tue 04:11:40 PM 38.4439 -116.8606 82° East 514 592 36,900 -49 Descending Salt Lake Center
Tue 04:12:41 PM 38.4633 -116.6789 82° East 513 590 36,900  Level Salt Lake Center
Tue 04:13:42 PM 38.4825 -116.4975 82° East 515 593 36,900 47 Level Salt Lake Center
Tue 04:14:48 PM 38.5025 -116.3119 82° East 522 601 37,000  Climbing Oakland Center
Tue 04:15:49 PM 38.5214 -116.1283 82° East 522 601 36,900  Descending Oakland Center
Tue 04:16:46 PM 38.5394 -115.9431 83° East 526 605 37,000  Climbing Salt Lake Center
Tue 04:17:47 PM 38.5583 -115.7586 82° East 524 603 36,900 98 Descending Salt Lake Center
Tue 04:18:49 PM 38.5758 -115.5756 83° East 520 598 37,200 488 Climbing Salt Lake Center
Tue 04:19:50 PM 38.5944 -115.3911 83° East 522 601 37,900 344 Climbing Salt Lake Center
Tue 04:20:51 PM 38.6111 -115.1903 84° East 528 608 37,900 49 Level Salt Lake Center
Tue 04:21:52 PM 38.6292 -115.0025 83° East 532 612 38,000  Climbing Salt Lake Center
Tue 04:22:54 PM 38.6475 -114.8142 83° East 532 612 37,900 -49 Descending Salt Lake Center
Tue 04:23:55 PM 38.6653 -114.6261 83° East 533 613 37,900  Level Salt Lake Center
Tue 04:24:56 PM 38.6853 -114.4019 83° East 530 610 37,900 49 Level Salt Lake Center
Tue 04:25:57 PM 38.7008 -114.2150 84° East 528 608 38,000  Climbing Salt Lake Center
Tue 04:26:59 PM 38.7161 -114.0283 84° East 528 608 37,900 -49 Descending Salt Lake Center
Tue 04:28:00 PM 38.7317 -113.8403 84° East 530 610 37,900 49 Level Salt Lake Center
Tue 04:29:01 PM 38.7464 -113.6525 84° East 530 610 38,000  Climbing Salt Lake Center
Tue 04:30:03 PM 38.7622 -113.4628 84° East 535 616 37,900 -49 Descending Salt Lake Center
Tue 04:31:04 PM 38.7767 -113.2719 84° East 537 618 37,900  Level Salt Lake Center
Tue 04:32:05 PM 38.7917 -113.0797 84° East 539 620 37,900  Level Salt Lake Center
Tue 04:33:07 PM 38.8053 -112.8886 85° East 540 621 37,900  Level Salt Lake Center
Tue 04:34:08 PM 38.8194 -112.6969 85° East 539 620 37,900  Level Salt Lake Center
Tue 04:35:09 PM 38.8358 -112.4656 85° East 542 624 37,900  Level Salt Lake Center
Tue 04:36:11 PM 38.8500 -112.2750 84° East 538 619 37,900 49 Level Salt Lake Center
Tue 04:37:12 PM 38.8617 -112.0817 86° East 542 624 38,000 49 Climbing Salt Lake Center
Tue 04:38:13 PM 38.8753 -111.8908 85° East 539 620 38,000  Level Salt Lake Center
Tue 04:39:14 PM 38.8875 -111.6989 85° East 539 620 38,000 -49 Level Salt Lake Center
Tue 04:40:16 PM 38.9003 -111.5097 85° East 534 615 37,900  Descending Salt Lake Center
Tue 04:41:17 PM 38.9100 -111.3186 86° East 537 618 38,000  Climbing Salt Lake Center
Tue 04:42:18 PM 38.9214 -111.1278 86° East 537 618 37,900 -439 Descending Salt Lake Center
Tue 04:43:20 PM 38.9342 -110.9242 85° East 533 613 37,100 -439 Descending Salt Lake Center
Tue 04:44:21 PM 38.9439 -110.7422 86° East 534 615 37,000 -98 Descending Salt Lake Center
Tue 04:45:22 PM 38.9544 -110.5311 86° East 533 613 36,900  Descending Salt Lake Center
Tue 04:46:23 PM 38.9656 -110.3514 85° East 529 609 37,000 49 Climbing Salt Lake Center
Tue 04:47:25 PM 38.9769 -110.1403 86° East 531 611 37,000  Level Salt Lake Center
Tue 04:48:26 PM 38.9856 -109.9603 86° East 530 610 37,000  Level Salt Lake Center
Tue 04:49:10 PM 38.9892 -109.8047 88° East 536 617 37,000 -57 Level Denver Center
Tue 04:50:11 PM 38.9983 -109.6247 86° East 532 612 36,900  Descending Denver Center
Tue 04:51:13 PM 39.0047 -109.4383 87° East 543 625 37,000  Climbing Denver Center
Tue 04:52:14 PM 39.0150 -109.2264 86° East 537 618 36,900  Descending Denver Center
Tue 04:53:28 PM 39.0225 -109.0453 87° East 533 613 37,000  Climbing Denver Center
Tue 04:54:29 PM 39.0311 -108.8308 87° East 542 624 36,900  Descending Denver Center
Tue 04:55:31 PM 39.0397 -108.6144 87° East 547 629 37,000 48 Climbing Denver Center
Tue 04:56:33 PM 39.0475 -108.3989 87° East 544 626 37,000  Level Denver Center
Tue 04:57:34 PM 39.0542 -108.2142 87° East 543 625 37,000  Level Denver Center
Tue 04:58:36 PM 39.0606 -107.9989 88° East 541 623 37,000 -49 Level Denver Center
Tue 04:59:37 PM 39.0667 -107.8147 87° East 541 623 36,900  Descending Denver Center
Tue 05:00:39 PM 39.0744 -107.6000 87° East 540 621 37,000 49 Climbing Denver Center
Tue 05:01:40 PM 39.0783 -107.4169 88° East 536 617 37,000 -49 Level Denver Center
Tue 05:02:42 PM 39.0850 -107.2031 88° East 537 618 36,900 -44 Descending Denver Center
Tue 05:03:55 PM 39.0878 -107.0208 89° East 533 613 36,900 44 Level Denver Center
Tue 05:04:57 PM 39.0922 -106.7772 89° East 534 615 37,000  Climbing Denver Center
Tue 05:05:59 PM 39.0961 -106.5964 88° East 530 610 36,900 244 Descending Denver Center
Tue 05:07:00 PM 39.0992 -106.4203 89° East 517 595 37,500 683 Climbing Denver Center
Tue 05:08:02 PM 39.1028 -106.2075 89° East 531 611 38,300 683 Climbing Denver Center
Tue 05:09:03 PM 39.1050 -106.0128 89° East 530 610 38,900 267 Climbing Denver Center
Tue 05:10:17 PM 39.1083 -105.8206 89° East 534 615 38,900  Level Denver Center
Tue 05:11:19 PM 39.1103 -105.6017 89° East 523 602 38,900 49 Level Denver Center
Tue 05:12:20 PM 39.1131 -105.4142 89° East 520 598 39,000  Climbing Denver Center
Tue 05:13:22 PM 39.1144 -105.2258 89° East 524 603 38,900 -49 Descending Denver Center
Tue 05:14:23 PM 39.1144 -105.0078 90° East 522 601 38,900  Level Denver Center
Tue 05:15:25 PM 39.1153 -104.8228 90° East 517 595 38,900 48 Level Denver Center
Tue 05:16:27 PM 39.1183 -104.6678 88° East 517 595 39,000  Climbing Denver Center
Tue 05:17:28 PM 39.1183 -104.4511 90° East 520 598 38,900  Descending Denver Center
Tue 05:18:30 PM 39.1189 -104.2683 90° East 512 589 39,000 48 Climbing Denver Center
Tue 05:19:32 PM 39.1186 -104.0936 90° East 492 566 39,000  Level Denver Center
Tue 05:20:33 PM 39.1175 -103.9131 90° East 500 575 39,000  Level Denver Center
Tue 05:21:35 PM 39.1167 -103.7011 90° East 505 581 39,000 -49 Level Denver Center
Tue 05:22:36 PM 39.1153 -103.5253 91° East 493 567 38,900  Descending Denver Center
Tue 05:23:38 PM 39.1136 -103.3556 91° East 476 548 39,000  Climbing Denver Center
Tue 05:24:40 PM 39.1125 -103.1769 90° East 493 567 38,900 -49 Descending Denver Center
Tue 05:25:41 PM 39.1100 -102.9944 91° East 504 580 38,900  Level Denver Center
Tue 05:26:43 PM 39.0992 -102.8136 94° East 504 580 38,900  Level Denver Center
Tue 05:27:44 PM 39.0864 -102.6125 95° East 514 592 38,900  Level Denver Center
Tue 05:28:46 PM 39.0764 -102.4625 95° East 523 602 38,900 49 Level Denver Center
Tue 05:29:47 PM 39.0656 -102.2928 95° East 502 578 39,000  Climbing Denver Center
Tue 05:30:50 PM 39.0486 -102.0633 95° East 504 580 38,900 -48 Descending Denver Center
Tue 05:31:51 PM 39.0381 -101.8903 94° East 506 582 38,900  Level Denver Center
Tue 05:32:53 PM 39.0231 -101.6889 95° East 505 581 38,900  Level Denver Center
Tue 05:33:54 PM 39.0106 -101.5161 95° East 506 582 38,900  Level Denver Center
Tue 05:34:56 PM 38.9950 -101.3164 96° East 504 580 38,900  Level Denver Center
Tue 05:35:58 PM 38.9822 -101.1453 95° East 503 579 38,900  Level Denver Center
Tue 05:36:59 PM 38.9517 -101.0117 106° East 489 563 38,900  Level Denver Center
Tue 05:38:01 PM 38.9133 -100.7936 103° East 498 573 38,900 48 Level Denver Center
Tue 05:39:03 PM 38.9022 -100.6267 95° East 493 567 39,000  Climbing Denver Center
Tue 05:40:05 PM 38.8861 -100.4308 96° East 494 568 38,900  Descending Denver Center
Tue 05:41:06 PM 38.8728 -100.2633 96° East 492 566 39,000  Climbing Denver Center
Tue 05:42:08 PM 38.8594 -100.0961 96° East 491 565 38,900 -48 Descending Denver Center
Tue 05:43:10 PM 38.8433 -99.9011 96° East 492 566 38,900  Level Denver Center
Tue 05:44:12 PM 38.8306 -99.7339 96° East 492 566 38,900  Level Denver Center
Tue 05:45:14 PM 38.8142 -99.5392 96° East 492 566 38,900 49 Level Denver Center
Tue 05:46:15 PM 38.7994 -99.3703 96° East 495 570 39,000  Climbing Denver Center
Tue 05:47:20 PM 38.7814 -99.1797 97° East 495 570 38,900  Descending Kansas City Center
Tue 05:48:21 PM 38.7672 -99.0028 96° East 497 572 39,000  Climbing Kansas City Center
Tue 05:49:24 PM 38.7511 -98.8242 97° East 503 579 38,900 -48 Descending Kansas City Center
Tue 05:50:25 PM 38.7342 -98.6450 97° East 506 582 38,900 48 Level Kansas City Center
Tue 05:51:28 PM 38.7175 -98.4669 97° East 503 579 39,000  Climbing Kansas City Center
Tue 05:52:29 PM 38.7003 -98.2886 97° East 502 578 38,900 -48 Descending Kansas City Center
Tue 05:53:32 PM 38.6800 -98.0767 97° East 499 574 38,900 48 Level Kansas City Center
Tue 05:54:34 PM 38.6631 -97.8986 97° East 501 577 39,000  Climbing Kansas City Center
Tue 05:55:38 PM 38.6450 -97.7203 97° East 503 579 38,900 -48 Descending Kansas City Center
Tue 05:56:39 PM 38.6267 -97.5425 97° East 502 578 38,900  Level Kansas City Center
Tue 05:57:41 PM 38.6094 -97.3650 97° East 501 577 38,900  Level Kansas City Center
Tue 05:58:43 PM 38.5906 -97.1878 98° East 502 578 38,900  Level Kansas City Center
Tue 05:59:45 PM 38.5719 -97.0117 98° East 500 575 38,900  Level Kansas City Center
Tue 06:00:47 PM 38.5614 -96.8064 94° East 501 577 38,900  Level Kansas City Center
Tue 06:01:47 PM 38.5692 -96.6336 87° East 509 586 38,900  Level Kansas City Center
Tue 06:02:51 PM 38.5778 -96.4314 87° East 511 588 38,900  Level Kansas City Center
Tue 06:03:51 PM 38.5850 -96.2589 87° East 511 588 38,900  Level Kansas City Center
Tue 06:04:56 PM 38.5936 -96.0567 87° East 511 588 38,900  Level Kansas City Center
Tue 06:05:57 PM 38.6019 -95.8853 86° East 510 587 38,900  Level Kansas City Center
Tue 06:06:58 PM 38.6083 -95.6861 88° East 504 580 38,900  Level Kansas City Center
Tue 06:08:00 PM 38.6147 -95.5156 87° East 504 580 38,900  Level Kansas City Center
Tue 06:09:02 PM 38.6222 -95.3167 87° East 505 581 38,900  Level Kansas City Center
Tue 06:10:03 PM 38.6286 -95.1458 87° East 505 581 38,900  Level Kansas City Center
Tue 06:11:05 PM 38.6344 -94.9467 88° East 507 583 38,900  Level Kansas City Center
Tue 06:12:09 PM 38.6400 -94.7744 88° East 509 586 38,900  Level Kansas City Center
Tue 06:13:12 PM 38.6453 -94.5739 88° East 510 587 38,900 -384 Level Kansas City Center
Tue 06:14:14 PM 38.6500 -94.4025 88° East 507 583 38,100 -919 Descending Kansas City Center
Tue 06:15:16 PM 38.6553 -94.1992 88° East 511 588 37,000 -919 Descending Kansas City Center
Tue 06:16:18 PM 38.6600 -94.0269 88° East 508 585 36,200 -919 Descending Kansas City Center
Tue 06:17:20 PM 38.6639 -93.8292 88° East 501 577 35,100 -984 Descending Kansas City Center
Tue 06:18:20 PM 38.6683 -93.6644 88° East 499 574 34,200 -871 Descending Kansas City Center
Tue 06:19:24 PM 38.6731 -93.4842 88° East 503 579 33,300 -1,000 Descending Kansas City Center
Tue 06:20:26 PM 38.6764 -93.2672 89° East 505 581 32,100 -1,024 Descending Kansas City Center
Tue 06:21:27 PM 38.6789 -93.0839 89° East 510 587 31,200 -919 Descending Kansas City Center
Tue 06:22:30 PM 38.6828 -92.9025 88° East 507 583 30,200 -960 Descending Kansas City Center
Tue 06:23:32 PM 38.6844 -92.7200 89° East 508 585 29,200 -984 Descending Kansas City Center
Tue 06:24:32 PM 38.6867 -92.5375 89° East 509 586 28,200 -1,008 Descending Kansas City Center
Tue 06:25:37 PM 38.6889 -92.3589 89° East 503 579 27,100 -1,008 Descending Kansas City Center
Tue 06:26:37 PM 38.6900 -92.1836 89° East 493 567 26,100 -968 Descending Kansas City Center
Tue 06:27:41 PM 38.6911 -92.0094 89° East 487 560 25,100 -952 Descending Kansas City Center
Tue 06:28:43 PM 38.6911 -91.8378 90° East 482 555 24,100 -1,765 Descending Kansas City Center
Tue 06:29:40 PM 38.6950 -91.5917 89° East 457 526 21,600 -2,571 Descending FAA TRACON SMA TRACON (SMA)
Tue 06:30:00 PM 38.6939 -91.5417 92° East 457 526 20,800 -2,550 Descending FAA TRACON SMA TRACON (SMA)
Tue 06:30:20 PM 38.6936 -91.4803 90° East 451 519 19,900 -2,400 Descending FAA TRACON SMA TRACON (SMA)
Tue 06:30:40 PM 38.6931 -91.4317 91° East 446 513 19,200 -2,100 Descending FAA TRACON SMA TRACON (SMA)
Tue 06:31:00 PM 38.6942 -91.3836 88° East 440 506 18,500 -2,100 Descending FAA TRACON SMA TRACON (SMA)
Tue 06:31:20 PM 38.6933 -91.3244 91° East 432 497 17,800 -2,400 Descending FAA TRACON SMA TRACON (SMA)
Tue 06:31:40 PM 38.6925 -91.2775 91° East 429 494 16,900 -2,550 Descending FAA TRACON SMA TRACON (SMA)
Tue 06:32:00 PM 38.6931 -91.2308 89° East 427 491 16,100 -2,634 Descending FAA TRACON SMA TRACON (SMA)
Tue 06:32:21 PM 38.6911 -91.1728 92° East 426 490 15,100 -1,756 Descending FAA TRACON SMA TRACON (SMA)
Tue 06:32:41 PM 38.6911 -91.1275 90° East 419 482 14,900 -308 Descending FAA TRACON SMA TRACON (SMA)
Tue 06:33:00 PM 38.6914 -91.0839 90° East 403 464 14,900  Level FAA TRACON SMA TRACON (SMA)
Tue 06:33:20 PM 38.6911 -91.0303 90° East 392 451 14,900 -300 Level FAA TRACON SMA TRACON (SMA)
Tue 06:33:40 PM 38.6903 -90.9889 91° East 384 442 14,700 -450 Descending FAA TRACON SMA TRACON (SMA)
Tue 06:34:00 PM 38.6906 -90.9489 89° East 368 423 14,600 -600 Descending FAA TRACON SMA TRACON (SMA)
Tue 06:34:20 PM 38.6914 -90.9006 89° East 354 407 14,300 -585 Descending FAA TRACON SMA TRACON (SMA)
Tue 06:34:41 PM 38.6925 -90.8628 88° East 349 402 14,200 -732 Descending FAA TRACON SMA TRACON (SMA)
Tue 06:35:01 PM 38.6944 -90.8247 86° East 347 399 13,800 -1,500 Descending FAA TRACON SMA TRACON (SMA)
Tue 06:35:21 PM 38.6961 -90.7772 87° East 349 402 13,200 -1,500 Descending FAA TRACON SMA TRACON (SMA)
Tue 06:35:41 PM 38.6978 -90.7394 87° East 346 398 12,800 -1,385 Descending FAA TRACON SMA TRACON (SMA)
Tue 06:36:00 PM 38.6992 -90.7019 87° East 343 395 12,300 -1,692 Descending FAA TRACON SMA TRACON (SMA)
Tue 06:36:20 PM 38.7014 -90.6558 86° East 339 390 11,700 -1,650 Descending FAA TRACON SMA TRACON (SMA)
Tue 06:36:40 PM 38.7025 -90.6186 88° East 338 389 11,200 -1,350 Descending FAA TRACON SMA TRACON (SMA)
Tue 06:37:00 PM 38.7039 -90.5822 87° East 335 386 10,800 -1,350 Descending FAA TRACON SMA TRACON (SMA)
Tue 06:37:20 PM 38.7056 -90.5372 87° East 331 381 10,300 -1,500 Descending FAA TRACON SMA TRACON (SMA)
Tue 06:37:40 PM 38.7069 -90.5017 87° East 325 374 9,800 -1,650 Descending FAA TRACON SMA TRACON (SMA)
Tue 06:38:00 PM 38.7022 -90.4683 100° East 320 368 9,200 -1,846 Descending FAA TRACON SMA TRACON (SMA)
Tue 06:38:19 PM 38.6842 -90.4342 124° Southeast 306 352 8,600 -1,500 Descending FAA TRACON SMA TRACON (SMA)
Tue 06:38:40 PM 38.6694 -90.4072 125° Southeast 298 343 8,200 -1,024 Descending FAA TRACON SMA TRACON (SMA)
Tue 06:39:00 PM 38.6547 -90.3811 126° Southeast 292 336 7,900 -462 Descending FAA TRACON SMA TRACON (SMA)
Tue 06:39:19 PM 38.6375 -90.3500 125° Southeast 284 327 7,900 -300 Level FAA TRACON SMA TRACON (SMA)
Tue 06:39:40 PM 38.6239 -90.3250 125° Southeast 277 319 7,700 -1,317 Descending FAA TRACON SMA TRACON (SMA)
Tue 06:40:00 PM 38.6069 -90.2944 125° Southeast 273 314 7,000 -1,538 Descending FAA TRACON SMA TRACON (SMA)
Tue 06:40:19 PM 38.5939 -90.2694 124° Southeast 275 316 6,700 -769 Descending FAA TRACON SMA TRACON (SMA)
Tue 06:40:39 PM 38.5808 -90.2453 125° Southeast 271 312 6,500 -585 Descending FAA TRACON SMA TRACON (SMA)
Tue 06:41:00 PM 38.5658 -90.2164 124° Southeast 257 296 6,300 -1,200 Descending FAA TRACON SMA TRACON (SMA)
Tue 06:41:19 PM 38.5539 -90.1942 124° Southeast 247 284 5,700 -1,846 Descending FAA TRACON SMA TRACON (SMA)
Tue 06:41:39 PM 38.5428 -90.1711 122° Southeast 246 283 5,100 -1,756 Descending FAA TRACON SMA TRACON (SMA)
Tue 06:42:00 PM 38.5414 -90.1378 93° East 255 293 4,500 -1,650 Descending FAA TRACON SMA TRACON (SMA)
Tue 06:42:19 PM 38.5542 -90.1144 55° Northeast 266 306 4,000 -923 Descending FAA TRACON SMA TRACON (SMA)
Tue 06:42:39 PM 38.5733 -90.1028 25° Northeast 259 298 3,900 -293 Descending FAA TRACON SMA TRACON (SMA)
Tue 06:43:00 PM 38.5950 -90.0903 24° Northeast 231 266 3,800 -450 Descending FAA TRACON SMA TRACON (SMA)
Tue 06:43:19 PM 38.6111 -90.0875 North 213 245 3,600 -615 Descending FAA TRACON SMA TRACON (SMA)
Tue 06:43:39 PM 38.6253 -90.0967 333° Northwest 195 224 3,400 -293 Descending FAA TRACON SMA TRACON (SMA)
Tue 06:44:00 PM 38.6419 -90.1100 328° Northwest 183 211 3,400  Level FAA TRACON SMA TRACON (SMA)
Tue 06:44:19 PM 38.6536 -90.1225 320° Northwest 181 208 3,400  Level FAA TRACON SMA TRACON (SMA)

Login

Don't have an account? Register now (free) for customized features, flight alerts, and more!